Wetterdaten: Woche 15.05.17 - 21.05.17 (KW20)
Datum Zeit Temp. I. Temp. A. Feuchte I. Feuchte A. Luftdruck Regen Wind Richtung Sonnenschein UV Solar Taupunkt Windchill Windben
15.05.2017 00:00 24,4 C 11,1 C 55 % 96 % 1024,3 hPa 0,0 l/m 0,0 km/h (0 Bft) N 0,00 h 0,0 UV-I 0 W/m 10,4 C 11,1 C 0,0 km/h (0 Bft)
15.05.2017 01:00 24,4 C 9,8 C 55 % 96 % 1024,8 hPa 0,0 l/m 0,0 km/h (0 Bft) N 0,00 h 0,0 UV-I 0 W/m 9,2 C 9,8 C 0,0 km/h (0 Bft)
15.05.2017 02:00 24,3 C 8,6 C 56 % 97 % 1025,2 hPa 0,0 l/m 0,0 km/h (0 Bft) N 0,00 h 0,0 UV-I 0 W/m 8,1 C 8,6 C 0,0 km/h (0 Bft)
15.05.2017 03:00 24,4 C 7,6 C 56 % 97 % 1025,6 hPa 0,0 l/m 0,0 km/h (0 Bft) N 0,00 h 0,0 UV-I 0 W/m 7,2 C 7,6 C 0,0 km/h (0 Bft)
15.05.2017 04:00 24,5 C 6,9 C 56 % 97 % 1026,0 hPa 0,0 l/m 0,0 km/h (0 Bft) N 0,00 h 0,0 UV-I 0 W/m 6,5 C 6,9 C 0,0 km/h (0 Bft)
15.05.2017 05:00 24,5 C 6,6 C 55 % 97 % 1026,0 hPa 0,0 l/m 0,0 km/h (0 Bft) N 0,00 h 0,0 UV-I 8 W/m 6,2 C 6,6 C 0,0 km/h (0 Bft)
15.05.2017 06:00 24,6 C 6,9 C 54 % 97 % 1026,4 hPa 0,0 l/m 0,0 km/h (0 Bft) N 0,00 h 0,0 UV-I 42 W/m 6,5 C 6,9 C 0,0 km/h (0 Bft)
15.05.2017 07:00 24,4 C 9,6 C 55 % 97 % 1027,0 hPa 0,0 l/m 0,0 km/h (0 Bft) N 0,30 h 0,6 UV-I 123 W/m 9,1 C 9,6 C 0,0 km/h (0 Bft)
15.05.2017 08:00 24,3 C 12,8 C 55 % 90 % 1027,4 hPa 0,0 l/m 0,0 km/h (0 Bft) N 1,00 h 1,3 UV-I 419 W/m 11,1 C 12,8 C 0,0 km/h (0 Bft)
15.05.2017 09:00 24,0 C 15,5 C 53 % 80 % 1027,8 hPa 0,0 l/m 1,1 km/h (1 Bft) W-SW 1,00 h 2,5 UV-I 562 W/m 12,0 C 15,5 C 2,7 km/h (1 Bft)
15.05.2017 10:00 24,2 C 17,2 C 53 % 71 % 1028,0 hPa 0,0 l/m 1,7 km/h (1 Bft) W 1,00 h 3,8 UV-I 687 W/m 11,9 C 17,2 C 3,8 km/h (1 Bft)
15.05.2017 11:00 24,2 C 17,4 C 52 % 69 % 1027,9 hPa 1,2 l/m 4,5 km/h (1 Bft) W-SW 0,65 h 3,1 UV-I 390 W/m 11,6 C 16,5 C 7,8 km/h (2 Bft)
15.05.2017 12:00 24,3 C 12,7 C 51 % 90 % 1028,3 hPa 2,8 l/m 2,7 km/h (1 Bft) N 0,13 h 0,8 UV-I 96 W/m 11,1 C 12,3 C 3,8 km/h (1 Bft)
15.05.2017 13:00 24,3 C 13,8 C 53 % 90 % 1028,3 hPa 1,2 l/m 0,1 km/h (0 Bft) O-NO 0,55 h 2,2 UV-I 293 W/m 12,2 C 13,8 C 0,9 km/h (0 Bft)
15.05.2017 14:00 24,7 C 16,5 C 53 % 79 % 1028,1 hPa 0,0 l/m 0,0 km/h (0 Bft) S 0,93 h 3,1 UV-I 396 W/m 12,8 C 16,5 C 0,1 km/h (0 Bft)
15.05.2017 15:00 24,6 C 18,0 C 53 % 67 % 1027,8 hPa 0,0 l/m 0,9 km/h (0 Bft) N-NO 0,75 h 2,2 UV-I 421 W/m 11,8 C 18,0 C 2,3 km/h (1 Bft)
15.05.2017 16:00 24,4 C 18,8 C 54 % 64 % 1027,5 hPa 0,0 l/m 1,0 km/h (0 Bft) N-NO 0,93 h 2,1 UV-I 462 W/m 11,9 C 18,8 C 2,5 km/h (1 Bft)
15.05.2017 17:00 24,3 C 19,4 C 51 % 52 % 1027,4 hPa 0,0 l/m 3,7 km/h (1 Bft) W-NW 0,67 h 1,3 UV-I 258 W/m 9,3 C 19,2 C 7,4 km/h (2 Bft)
15.05.2017 18:00 24,4 C 18,2 C 52 % 56 % 1027,6 hPa 0,0 l/m 3,2 km/h (1 Bft) N-NW 0,00 h 0,7 UV-I 101 W/m 9,3 C 18,1 C 6,8 km/h (2 Bft)
15.05.2017 19:00 24,7 C 16,8 C 53 % 66 % 1028,1 hPa 0,0 l/m 3,3 km/h (1 Bft) N 0,00 h 0,5 UV-I 63 W/m 10,5 C 16,6 C 8,1 km/h (2 Bft)
15.05.2017 20:00 24,7 C 14,9 C 54 % 72 % 1028,5 hPa 0,0 l/m 0,3 km/h (0 Bft) N 0,00 h 0,0 UV-I 15 W/m 9,8 C 14,9 C 1,0 km/h (0 Bft)
15.05.2017 21:00 24,9 C 12,9 C 54 % 82 % 1029,3 hPa 0,0 l/m 0,0 km/h (0 Bft) N 0,00 h 0,0 UV-I 0 W/m 9,8 C 12,9 C 0,0 km/h (0 Bft)
15.05.2017 22:00 24,8 C 10,9 C 54 % 90 % 1029,8 hPa 0,0 l/m 0,0 km/h (0 Bft) N 0,00 h 0,0 UV-I 0 W/m 9,3 C 10,9 C 0,0 km/h (0 Bft)
15.05.2017 23:00 24,6 C 9,7 C 54 % 94 % 1029,9 hPa 0,0 l/m 0,0 km/h (0 Bft) N 0,00 h 0,0 UV-I 0 W/m 8,7 C 9,7 C 0,0 km/h (0 Bft)
16.05.2017 00:00 24,5 C 8,7 C 54 % 94 % 1030,2 hPa 0,0 l/m 0,0 km/h (0 Bft) N 0,00 h 0,0 UV-I 0 W/m 7,8 C 8,7 C 0,0 km/h (0 Bft)
16.05.2017 01:00 24,4 C 8,0 C 55 % 95 % 1030,4 hPa 0,0 l/m 0,0 km/h (0 Bft) N 0,00 h 0,0 UV-I 0 W/m 7,2 C 8,0 C 0,0 km/h (0 Bft)
16.05.2017 02:00 24,4 C 7,2 C 55 % 95 % 1030,2 hPa 0,0 l/m 0,0 km/h (0 Bft) N 0,00 h 0,0 UV-I 0 W/m 6,4 C 7,2 C 0,0 km/h (0 Bft)
16.05.2017 03:00 24,4 C 6,5 C 55 % 96 % 1029,8 hPa 0,0 l/m 0,0 km/h (0 Bft) N 0,00 h 0,0 UV-I 0 W/m 5,9 C 6,5 C 0,0 km/h (0 Bft)
16.05.2017 04:00 24,4 C 5,9 C 55 % 96 % 1029,8 hPa 0,0 l/m 0,0 km/h (0 Bft) N 0,00 h 0,0 UV-I 0 W/m 5,3 C 5,9 C 0,0 km/h (0 Bft)
16.05.2017 05:00 24,3 C 5,3 C 56 % 96 % 1030,0 hPa 0,0 l/m 0,0 km/h (0 Bft) N 0,00 h 0,0 UV-I 10 W/m 4,7 C 5,3 C 0,0 km/h (0 Bft)
16.05.2017 06:00 24,2 C 5,5 C 56 % 96 % 1030,2 hPa 0,0 l/m 0,0 km/h (0 Bft) N 0,00 h 0,0 UV-I 31 W/m 5,0 C 5,5 C 0,0 km/h (0 Bft)
16.05.2017 07:00 24,4 C 7,6 C 56 % 96 % 1030,3 hPa 0,0 l/m 0,0 km/h (0 Bft) N 0,07 h 0,8 UV-I 95 W/m 6,9 C 7,6 C 0,0 km/h (0 Bft)
16.05.2017 08:00 24,4 C 10,8 C 55 % 92 % 1030,4 hPa 0,0 l/m 0,0 km/h (0 Bft) N 0,93 h 1,3 UV-I 272 W/m 9,5 C 10,8 C 0,0 km/h (0 Bft)
16.05.2017 09:00 24,4 C 15,5 C 55 % 77 % 1030,3 hPa 0,0 l/m 0,0 km/h (0 Bft) N 1,00 h 2,7 UV-I 601 W/m 11,5 C 15,5 C 0,0 km/h (0 Bft)
16.05.2017 10:00 24,5 C 18,4 C 55 % 59 % 1030,1 hPa 0,0 l/m 0,7 km/h (0 Bft) NW 1,00 h 4,3 UV-I 730 W/m 10,3 C 18,4 C 1,8 km/h (1 Bft)
16.05.2017 11:00 24,6 C 19,9 C 55 % 51 % 1029,9 hPa 0,0 l/m 1,3 km/h (1 Bft) W-NW 0,90 h 5,2 UV-I 708 W/m 9,3 C 19,8 C 3,6 km/h (1 Bft)
16.05.2017 12:00 24,6 C 20,9 C 54 % 46 % 1029,4 hPa 0,0 l/m 1,2 km/h (1 Bft) N-NW 1,00 h 6,4 UV-I 859 W/m 8,7 C 20,9 C 3,4 km/h (1 Bft)
16.05.2017 13:00 24,7 C 21,7 C 51 % 43 % 1029,0 hPa 0,0 l/m 1,5 km/h (1 Bft) NO 1,00 h 6,6 UV-I 883 W/m 8,6 C 21,7 C 4,2 km/h (1 Bft)
16.05.2017 14:00 24,7 C 22,3 C 47 % 42 % 1028,4 hPa 0,0 l/m 0,8 km/h (0 Bft) N 1,00 h 5,8 UV-I 804 W/m 8,7 C 22,3 C 2,6 km/h (1 Bft)
16.05.2017 15:00 24,9 C 22,6 C 48 % 40 % 1027,8 hPa 0,0 l/m 2,7 km/h (1 Bft) N-NO 1,00 h 4,6 UV-I 714 W/m 8,3 C 22,5 C 6,6 km/h (2 Bft)
16.05.2017 16:00 24,9 C 22,5 C 46 % 37 % 1027,4 hPa 0,0 l/m 2,4 km/h (1 Bft) N-NW 1,00 h 3,3 UV-I 590 W/m 7,0 C 22,4 C 5,2 km/h (1 Bft)
16.05.2017 17:00 24,7 C 22,2 C 43 % 36 % 1027,1 hPa 0,0 l/m 2,6 km/h (1 Bft) N 0,93 h 1,9 UV-I 408 W/m 6,3 C 22,2 C 6,2 km/h (2 Bft)
16.05.2017 18:00 24,5 C 20,6 C 42 % 41 % 1026,8 hPa 0,0 l/m 2,7 km/h (1 Bft) N-NO 0,00 h 1,0 UV-I 57 W/m 6,8 C 20,5 C 5,7 km/h (1 Bft)
16.05.2017 19:00 24,7 C 20,3 C 44 % 41 % 1026,7 hPa 0,0 l/m 0,0 km/h (0 Bft) N 0,00 h 0,0 UV-I 34 W/m 6,5 C 20,3 C 0,3 km/h (0 Bft)
16.05.2017 20:00 24,8 C 19,1 C 46 % 48 % 1026,8 hPa 0,0 l/m 0,0 km/h (0 Bft) N 0,00 h 0,0 UV-I 14 W/m 7,7 C 19,1 C 0,0 km/h (0 Bft)
16.05.2017 21:00 24,9 C 16,8 C 47 % 62 % 1027,1 hPa 0,0 l/m 0,0 km/h (0 Bft) N 0,00 h 0,0 UV-I 0 W/m 9,6 C 16,8 C 0,0 km/h (0 Bft)
16.05.2017 22:00 25,0 C 15,1 C 48 % 72 % 1027,1 hPa 0,0 l/m 0,0 km/h (0 Bft) N 0,00 h 0,0 UV-I 0 W/m 10,1 C 15,1 C 0,0 km/h (0 Bft)
16.05.2017 23:00 24,7 C 14,7 C 48 % 75 % 1027,2 hPa 0,0 l/m 0,0 km/h (0 Bft) N 0,00 h 0,0 UV-I 0 W/m 10,4 C 14,7 C 0,0 km/h (0 Bft)
17.05.2017 00:00 24,6 C 13,4 C 49 % 82 % 1027,2 hPa 0,0 l/m 0,0 km/h (0 Bft) O-NO 0,00 h 0,0 UV-I 0 W/m 10,4 C 13,4 C 0,2 km/h (0 Bft)
17.05.2017 01:00 24,5 C 13,2 C 50 % 80 % 1027,1 hPa 0,0 l/m 0,2 km/h (0 Bft) O-NO 0,00 h 0,0 UV-I 0 W/m 9,8 C 13,2 C 1,3 km/h (1 Bft)
17.05.2017 02:00 24,5 C 13,1 C 50 % 80 % 1026,7 hPa 0,0 l/m 0,1 km/h (0 Bft) NO 0,00 h 0,0 UV-I 0 W/m 9,7 C 13,1 C 0,7 km/h (0 Bft)
17.05.2017 03:00 24,4 C 13,0 C 51 % 83 % 1026,2 hPa 0,0 l/m 0,0 km/h (0 Bft) N 0,00 h 0,0 UV-I 0 W/m 10,2 C 13,0 C 0,0 km/h (0 Bft)
17.05.2017 04:00 24,4 C 12,9 C 51 % 85 % 1025,8 hPa 0,0 l/m 0,0 km/h (0 Bft) N 0,00 h 0,0 UV-I 0 W/m 10,5 C 12,9 C 0,0 km/h (0 Bft)
17.05.2017 05:00 24,4 C 12,9 C 52 % 86 % 1025,3 hPa 0,0 l/m 0,0 km/h (0 Bft) N 0,00 h 0,0 UV-I 17 W/m 10,6 C 12,9 C 0,0 km/h (0 Bft)
17.05.2017 06:00 24,3 C 13,8 C 52 % 83 % 1025,1 hPa 0,0 l/m 0,4 km/h (0 Bft) O-NO 0,00 h 0,0 UV-I 53 W/m 10,9 C 13,8 C 1,3 km/h (1 Bft)
17.05.2017 07:00 24,5 C 15,8 C 52 % 69 % 1024,9 hPa 0,0 l/m 0,8 km/h (0 Bft) O-NO 0,60 h 0,7 UV-I 234 W/m 10,2 C 15,8 C 2,8 km/h (1 Bft)
17.05.2017 08:00 24,4 C 18,2 C 51 % 62 % 1024,5 hPa 0,0 l/m 0,0 km/h (0 Bft) O-SO 1,00 h 1,6 UV-I 444 W/m 10,7 C 18,2 C 0,4 km/h (0 Bft)
17.05.2017 09:00 24,5 C 20,4 C 50 % 54 % 1024,1 hPa 0,0 l/m 0,3 km/h (0 Bft) O-NO 1,00 h 2,8 UV-I 590 W/m 10,8 C 20,4 C 1,8 km/h (1 Bft)
17.05.2017 10:00 24,6 C 21,8 C 50 % 49 % 1023,5 hPa 0,0 l/m 1,5 km/h (1 Bft) O-SO 1,00 h 4,3 UV-I 728 W/m 10,6 C 21,8 C 4,4 km/h (1 Bft)
17.05.2017 11:00 24,7 C 22,5 C 50 % 48 % 1022,9 hPa 0,0 l/m 3,0 km/h (1 Bft) O-NO 1,00 h 5,6 UV-I 786 W/m 10,8 C 22,4 C 6,5 km/h (2 Bft)
17.05.2017 12:00 24,8 C 23,3 C 50 % 47 % 1022,1 hPa 0,0 l/m 4,3 km/h (1 Bft) O-SO 1,00 h 6,4 UV-I 818 W/m 11,5 C 23,2 C 9,1 km/h (2 Bft)
17.05.2017 13:00 24,9 C 23,0 C 49 % 50 % 1021,5 hPa 0,0 l/m 6,0 km/h (2 Bft) O-SO 1,00 h 5,4 UV-I 566 W/m 11,9 C 22,7 C 11,8 km/h (2 Bft)
17.05.2017 14:00 24,8 C 23,4 C 47 % 48 % 1020,9 hPa 0,0 l/m 5,9 km/h (2 Bft) SO 1,00 h 5,8 UV-I 769 W/m 11,8 C 23,0 C 11,1 km/h (2 Bft)
17.05.2017 15:00 24,8 C 23,3 C 47 % 49 % 1020,1 hPa 0,0 l/m 5,9 km/h (2 Bft) O-SO 0,92 h 4,4 UV-I 623 W/m 12,0 C 23,0 C 11,7 km/h (2 Bft)
17.05.2017 16:00 25,0 C 23,6 C 47 % 49 % 1019,1 hPa 0,0 l/m 4,0 km/h (1 Bft) O-NO 0,95 h 3,4 UV-I 587 W/m 12,4 C 23,6 C 10,0 km/h (2 Bft)
17.05.2017 17:00 25,0 C 23,0 C 47 % 50 % 1018,6 hPa 0,0 l/m 4,0 km/h (1 Bft) O-SO 0,93 h 2,0 UV-I 415 W/m 12,0 C 23,0 C 9,7 km/h (2 Bft)
17.05.2017 18:00 24,9 C 22,3 C 47 % 52 % 1017,9 hPa 0,0 l/m 3,8 km/h (1 Bft) O-SO 0,00 h 1,1 UV-I 44 W/m 11,9 C 22,2 C 8,9 km/h (2 Bft)
17.05.2017 19:00 24,9 C 21,6 C 47 % 53 % 1017,5 hPa 0,0 l/m 1,8 km/h (1 Bft) O 0,00 h 0,0 UV-I 26 W/m 11,8 C 21,6 C 6,1 km/h (2 Bft)
17.05.2017 20:00 24,9 C 20,4 C 48 % 58 % 1017,1 hPa 0,0 l/m 0,5 km/h (0 Bft) O-SO 0,00 h 0,0 UV-I 11 W/m 11,8 C 20,4 C 2,4 km/h (1 Bft)
17.05.2017 21:00 25,0 C 18,9 C 48 % 62 % 1016,9 hPa 0,0 l/m 0,6 km/h (0 Bft) O-SO 0,00 h 0,0 UV-I 0 W/m 11,6 C 18,9 C 2,7 km/h (1 Bft)
17.05.2017 22:00 24,9 C 17,9 C 48 % 65 % 1016,8 hPa 0,0 l/m 1,3 km/h (1 Bft) NO 0,00 h 0,0 UV-I 0 W/m 11,2 C 17,9 C 4,5 km/h (1 Bft)
17.05.2017 23:00 24,8 C 16,8 C 49 % 69 % 1016,4 hPa 0,0 l/m 1,7 km/h (1 Bft) O-NO 0,00 h 0,0 UV-I 0 W/m 11,0 C 16,8 C 5,4 km/h (1 Bft)
18.05.2017 00:00 24,7 C 16,6 C 49 % 67 % 1016,1 hPa 0,0 l/m 2,9 km/h (1 Bft) O-NO 0,00 h 0,0 UV-I 0 W/m 10,5 C 16,5 C 7,3 km/h (2 Bft)
18.05.2017 01:00 24,7 C 15,2 C 50 % 73 % 1015,4 hPa 0,0 l/m 2,5 km/h (1 Bft) O-NO 0,00 h 0,0 UV-I 0 W/m 10,3 C 15,1 C 6,7 km/h (2 Bft)
18.05.2017 02:00 24,7 C 14,2 C 50 % 76 % 1014,7 hPa 0,0 l/m 2,8 km/h (1 Bft) O-NO 0,00 h 0,0 UV-I 0 W/m 10,0 C 14,2 C 8,0 km/h (2 Bft)
18.05.2017 03:00 24,7 C 13,6 C 51 % 77 % 1014,2 hPa 0,0 l/m 0,5 km/h (0 Bft) O-NO 0,00 h 0,0 UV-I 0 W/m 9,6 C 13,6 C 2,2 km/h (1 Bft)
18.05.2017 04:00 24,7 C 12,2 C 51 % 81 % 1014,1 hPa 0,0 l/m 0,0 km/h (0 Bft) N 0,00 h 0,0 UV-I 0 W/m 9,1 C 12,2 C 0,0 km/h (0 Bft)
18.05.2017 05:00 24,6 C 12,1 C 52 % 81 % 1013,7 hPa 0,0 l/m 0,0 km/h (0 Bft) O-NO 0,00 h 0,0 UV-I 12 W/m 8,9 C 12,1 C 0,4 km/h (0 Bft)
18.05.2017 06:00 24,6 C 12,3 C 52 % 80 % 1013,4 hPa 0,0 l/m 0,5 km/h (0 Bft) O-NO 0,00 h 0,0 UV-I 29 W/m 9,0 C 12,3 C 2,0 km/h (1 Bft)
18.05.2017 07:00 24,7 C 14,6 C 52 % 73 % 1013,2 hPa 0,0 l/m 0,6 km/h (0 Bft) O 0,68 h 0,9 UV-I 212 W/m 9,9 C 14,6 C 2,3 km/h (1 Bft)
18.05.2017 08:00 24,7 C 17,3 C 52 % 67 % 1013,1 hPa 0,0 l/m 0,2 km/h (0 Bft) O-NO 1,00 h 1,7 UV-I 427 W/m 11,1 C 17,3 C 0,6 km/h (0 Bft)
18.05.2017 09:00 24,7 C 20,1 C 52 % 60 % 1013,1 hPa 0,0 l/m 0,1 km/h (0 Bft) O 1,00 h 2,8 UV-I 598 W/m 12,1 C 20,1 C 0,5 km/h (0 Bft)
18.05.2017 10:00 24,8 C 21,6 C 52 % 57 % 1012,8 hPa 0,0 l/m 1,4 km/h (1 Bft) SO 1,00 h 3,8 UV-I 630 W/m 12,8 C 21,6 C 3,8 km/h (1 Bft)
18.05.2017 11:00 25,0 C 23,9 C 52 % 53 % 1012,4 hPa 0,0 l/m 0,8 km/h (0 Bft) NW 1,00 h 5,8 UV-I 817 W/m 13,6 C 23,9 C 2,2 km/h (1 Bft)
18.05.2017 12:00 25,0 C 25,7 C 52 % 47 % 1012,1 hPa 0,0 l/m 1,2 km/h (1 Bft) W-NW 1,00 h 6,7 UV-I 857 W/m 13,5 C 25,7 C 3,2 km/h (1 Bft)
18.05.2017 13:00 25,0 C 26,7 C 52 % 43 % 1011,8 hPa 0,0 l/m 0,9 km/h (0 Bft) N-NO 1,00 h 6,9 UV-I 862 W/m 13,2 C 26,7 C 3,1 km/h (1 Bft)
18.05.2017 14:00 25,2 C 27,5 C 53 % 41 % 1011,3 hPa 0,0 l/m 0,2 km/h (0 Bft) S-SO 1,00 h 6,1 UV-I 814 W/m 13,1 C 27,5 C 1,7 km/h (1 Bft)
18.05.2017 15:00 25,3 C 27,5 C 53 % 40 % 1010,9 hPa 0,0 l/m 1,3 km/h (1 Bft) NW 1,00 h 4,7 UV-I 738 W/m 12,5 C 27,5 C 3,3 km/h (1 Bft)
18.05.2017 16:00 25,6 C 27,1 C 51 % 41 % 1010,5 hPa 0,0 l/m 1,5 km/h (1 Bft) S-SW 1,00 h 3,2 UV-I 604 W/m 12,6 C 27,1 C 4,1 km/h (1 Bft)
18.05.2017 17:00 26,0 C 26,4 C 49 % 40 % 1009,9 hPa 0,0 l/m 0,8 km/h (0 Bft) S 0,68 h 1,7 UV-I 320 W/m 11,5 C 26,4 C 2,1 km/h (1 Bft)
18.05.2017 18:00 25,7 C 25,8 C 49 % 43 % 1009,5 hPa 0,0 l/m 4,2 km/h (1 Bft) SO 0,00 h 0,9 UV-I 54 W/m 12,1 C 25,6 C 7,5 km/h (2 Bft)
18.05.2017 19:00 25,6 C 24,8 C 51 % 49 % 1009,4 hPa 0,0 l/m 3,6 km/h (1 Bft) SO 0,00 h 0,0 UV-I 31 W/m 13,4 C 24,7 C 7,8 km/h (2 Bft)
18.05.2017 20:00 25,4 C 23,1 C 51 % 54 % 1009,4 hPa 0,0 l/m 0,3 km/h (0 Bft) O-SO 0,00 h 0,0 UV-I 13 W/m 13,1 C 23,1 C 1,4 km/h (1 Bft)
18.05.2017 21:00 25,3 C 20,5 C 51 % 63 % 1009,4 hPa 0,0 l/m 0,1 km/h (0 Bft) NO 0,00 h 0,0 UV-I 0 W/m 13,1 C 20,5 C 0,6 km/h (0 Bft)
18.05.2017 22:00 25,3 C 18,8 C 51 % 67 % 1009,2 hPa 0,0 l/m 0,1 km/h (0 Bft) NO 0,00 h 0,0 UV-I 0 W/m 12,6 C 18,8 C 0,3 km/h (0 Bft)
18.05.2017 23:00 25,2 C 17,2 C 52 % 74 % 1009,0 hPa 0,0 l/m 0,0 km/h (0 Bft) N 0,00 h 0,0 UV-I 0 W/m 12,4 C 17,2 C 0,3 km/h (0 Bft)
19.05.2017 00:00 25,1 C 15,8 C 52 % 80 % 1008,7 hPa 0,0 l/m 0,0 km/h (0 Bft) N 0,00 h 0,0 UV-I 0 W/m 12,3 C 15,8 C 0,1 km/h (0 Bft)
19.05.2017 01:00 25,1 C 15,3 C 52 % 83 % 1008,1 hPa 0,0 l/m 0,0 km/h (0 Bft) N 0,00 h 0,0 UV-I 0 W/m 12,5 C 15,3 C 0,0 km/h (0 Bft)
19.05.2017 02:00 25,1 C 14,4 C 53 % 87 % 1008,0 hPa 0,0 l/m 0,0 km/h (0 Bft) N 0,00 h 0,0 UV-I 0 W/m 12,3 C 14,4 C 0,0 km/h (0 Bft)
19.05.2017 03:00 25,1 C 14,0 C 53 % 89 % 1007,9 hPa 0,0 l/m 0,2 km/h (0 Bft) N-NO 0,00 h 0,0 UV-I 0 W/m 12,3 C 14,0 C 0,4 km/h (0 Bft)
19.05.2017 04:00 25,1 C 14,0 C 53 % 87 % 1007,7 hPa 0,0 l/m 1,5 km/h (1 Bft) N-NO 0,00 h 0,0 UV-I 0 W/m 11,8 C 14,0 C 4,1 km/h (1 Bft)
19.05.2017 05:00 25,0 C 13,2 C 53 % 88 % 1007,4 hPa 0,0 l/m 0,0 km/h (0 Bft) N 0,00 h 0,0 UV-I 14 W/m 11,2 C 13,2 C 0,0 km/h (0 Bft)
19.05.2017 06:00 24,9 C 14,2 C 54 % 87 % 1007,2 hPa 0,0 l/m 0,0 km/h (0 Bft) N 0,00 h 0,5 UV-I 54 W/m 12,0 C 14,2 C 0,0 km/h (0 Bft)
19.05.2017 07:00 25,1 C 16,5 C 54 % 78 % 1006,9 hPa 0,0 l/m 2,3 km/h (1 Bft) O-NO 0,13 h 0,7 UV-I 92 W/m 12,6 C 16,5 C 5,3 km/h (1 Bft)
19.05.2017 08:00 24,9 C 19,5 C 52 % 67 % 1006,7 hPa 0,0 l/m 3,4 km/h (1 Bft) O-SO 0,93 h 1,6 UV-I 422 W/m 13,3 C 19,5 C 7,3 km/h (2 Bft)
19.05.2017 09:00 24,8 C 20,8 C 52 % 62 % 1006,9 hPa 0,0 l/m 1,2 km/h (1 Bft) O-SO 0,88 h 2,6 UV-I 523 W/m 13,3 C 20,8 C 3,3 km/h (1 Bft)
19.05.2017 10:00 24,8 C 22,8 C 52 % 59 % 1006,4 hPa 0,0 l/m 3,7 km/h (1 Bft) O-SO 1,00 h 4,2 UV-I 710 W/m 14,3 C 22,7 C 8,0 km/h (2 Bft)
19.05.2017 11:00 25,0 C 24,4 C 52 % 54 % 1005,9 hPa 0,0 l/m 5,3 km/h (1 Bft) O-SO 1,00 h 5,4 UV-I 798 W/m 14,6 C 24,2 C 10,2 km/h (2 Bft)
19.05.2017 12:00 25,2 C 24,9 C 51 % 52 % 1005,7 hPa 0,0 l/m 7,7 km/h (2 Bft) SO 1,00 h 6,3 UV-I 841 W/m 14,3 C 24,4 C 14,3 km/h (3 Bft)
19.05.2017 13:00 25,4 C 26,0 C 52 % 50 % 1005,3 hPa 0,0 l/m 4,4 km/h (1 Bft) O-SO 1,00 h 6,4 UV-I 839 W/m 14,6 C 25,9 C 10,1 km/h (2 Bft)
19.05.2017 14:00 25,8 C 26,8 C 50 % 45 % 1005,0 hPa 0,0 l/m 6,9 km/h (2 Bft) SO 1,00 h 5,8 UV-I 807 W/m 13,8 C 26,5 C 13,8 km/h (3 Bft)
19.05.2017 15:00 26,0 C 26,5 C 49 % 44 % 1004,5 hPa 0,0 l/m 4,6 km/h (1 Bft) O-SO 0,85 h 3,3 UV-I 396 W/m 13,1 C 26,4 C 10,4 km/h (2 Bft)
19.05.2017 16:00 25,6 C 26,2 C 49 % 44 % 1003,9 hPa 0,0 l/m 4,4 km/h (1 Bft) O-SO 0,58 h 2,3 UV-I 366 W/m 12,9 C 26,0 C 10,0 km/h (2 Bft)
19.05.2017 17:00 25,6 C 24,0 C 48 % 54 % 1004,3 hPa 0,0 l/m 8,5 km/h (2 Bft) SO 0,07 h 0,9 UV-I 117 W/m 14,0 C 23,3 C 16,5 km/h (3 Bft)
19.05.2017 18:00 25,5 C 19,4 C 52 % 81 % 1005,9 hPa 1,2 l/m 5,6 km/h (1 Bft) W 0,00 h 0,6 UV-I 24 W/m 15,9 C 19,0 C 12,0 km/h (2 Bft)
19.05.2017 19:00 25,4 C 15,2 C 53 % 90 % 1008,1 hPa 0,0 l/m 12,5 km/h (3 Bft) W-SW 0,00 h 0,0 UV-I 7 W/m 13,6 C 12,3 C 21,8 km/h (4 Bft)
19.05.2017 20:00 25,6 C 12,8 C 53 % 91 % 1010,2 hPa 0,0 l/m 9,4 km/h (2 Bft) W 0,00 h 0,0 UV-I 0 W/m 11,4 C 10,8 C 15,4 km/h (3 Bft)
19.05.2017 21:00 25,7 C 11,6 C 53 % 90 % 1011,9 hPa 0,4 l/m 5,2 km/h (1 Bft) W-SW 0,00 h 0,0 UV-I 0 W/m 10,0 C 11,0 C 11,3 km/h (2 Bft)
19.05.2017 22:00 25,5 C 10,6 C 53 % 93 % 1013,3 hPa 1,2 l/m 7,2 km/h (2 Bft) W-SW 0,00 h 0,0 UV-I 0 W/m 9,5 C 9,2 C 13,6 km/h (3 Bft)
19.05.2017 23:00 25,3 C 10,1 C 53 % 94 % 1014,0 hPa 1,6 l/m 3,7 km/h (1 Bft) W-SW 0,00 h 0,0 UV-I 0 W/m 9,1 C 9,9 C 8,4 km/h (2 Bft)
20.05.2017 00:00 25,2 C 9,5 C 53 % 94 % 1015,2 hPa 1,4 l/m 5,1 km/h (1 Bft) W-SW 0,00 h 0,0 UV-I 0 W/m 8,6 C 9,0 C 11,5 km/h (2 Bft)
20.05.2017 01:00 25,1 C 9,1 C 53 % 94 % 1015,4 hPa 0,0 l/m 7,0 km/h (2 Bft) W-SW 0,00 h 0,0 UV-I 0 W/m 8,2 C 8,0 C 13,7 km/h (3 Bft)
20.05.2017 02:00 25,1 C 9,0 C 53 % 94 % 1015,8 hPa 0,0 l/m 4,5 km/h (1 Bft) W-SW 0,00 h 0,0 UV-I 0 W/m 8,0 C 8,6 C 9,6 km/h (2 Bft)
20.05.2017 03:00 25,0 C 9,1 C 54 % 94 % 1016,1 hPa 0,0 l/m 3,1 km/h (1 Bft) W-SW 0,00 h 0,0 UV-I 0 W/m 8,1 C 8,9 C 7,3 km/h (2 Bft)
20.05.2017 04:00 25,0 C 9,1 C 54 % 95 % 1016,5 hPa 0,0 l/m 0,4 km/h (0 Bft) W-SW 0,00 h 0,0 UV-I 0 W/m 8,3 C 9,1 C 1,2 km/h (1 Bft)
20.05.2017 05:00 25,1 C 9,1 C 54 % 95 % 1016,9 hPa 0,2 l/m 1,0 km/h (0 Bft) W-SW 0,00 h 0,0 UV-I 5 W/m 8,3 C 9,1 C 2,3 km/h (1 Bft)
20.05.2017 06:00 24,9 C 9,0 C 54 % 94 % 1017,4 hPa 0,0 l/m 1,1 km/h (1 Bft) W-SW 0,00 h 0,0 UV-I 26 W/m 8,1 C 8,9 C 3,1 km/h (1 Bft)
20.05.2017 07:00 24,8 C 9,4 C 54 % 93 % 1018,1 hPa 0,0 l/m 1,2 km/h (1 Bft) W-SW 0,00 h 0,6 UV-I 88 W/m 8,2 C 9,4 C 4,0 km/h (1 Bft)
20.05.2017 08:00 24,9 C 9,9 C 54 % 89 % 1018,9 hPa 0,0 l/m 2,2 km/h (1 Bft) W-SW 0,25 h 0,9 UV-I 141 W/m 8,2 C 9,9 C 6,4 km/h (2 Bft)
20.05.2017 09:00 25,0 C 10,7 C 54 % 85 % 1019,5 hPa 0,0 l/m 2,9 km/h (1 Bft) W-SW 0,73 h 1,7 UV-I 300 W/m 8,3 C 10,5 C 6,1 km/h (2 Bft)
20.05.2017 10:00 25,1 C 12,1 C 54 % 79 % 1019,7 hPa 0,0 l/m 3,7 km/h (1 Bft) W-SW 0,97 h 3,0 UV-I 437 W/m 8,5 C 11,8 C 7,4 km/h (2 Bft)
20.05.2017 11:00 25,1 C 14,1 C 54 % 69 % 1019,9 hPa 0,0 l/m 4,6 km/h (1 Bft) W 1,00 h 3,8 UV-I 506 W/m 8,5 C 13,9 C 9,1 km/h (2 Bft)
20.05.2017 12:00 25,1 C 15,1 C 52 % 62 % 1020,1 hPa 0,0 l/m 5,0 km/h (1 Bft) W 1,00 h 5,2 UV-I 630 W/m 7,9 C 14,8 C 10,3 km/h (2 Bft)
20.05.2017 13:00 25,2 C 16,1 C 50 % 57 % 1020,1 hPa 0,0 l/m 3,6 km/h (1 Bft) W-NW 1,00 h 4,2 UV-I 493 W/m 7,6 C 16,1 C 7,8 km/h (2 Bft)
20.05.2017 14:00 25,0 C 17,2 C 47 % 53 % 1020,3 hPa 0,0 l/m 4,6 km/h (1 Bft) W-NW 1,00 h 4,5 UV-I 637 W/m 7,5 C 16,8 C 10,3 km/h (2 Bft)
20.05.2017 15:00 24,3 C 17,3 C 40 % 49 % 1020,6 hPa 0,0 l/m 7,4 km/h (2 Bft) W-NW 1,00 h 3,3 UV-I 492 W/m 6,5 C 16,3 C 14,2 km/h (3 Bft)
20.05.2017 16:00 24,2 C 17,4 C 40 % 50 % 1021,0 hPa 0,0 l/m 9,6 km/h (2 Bft) NW 1,00 h 2,4 UV-I 370 W/m 6,7 C 15,7 C 15,9 km/h (3 Bft)
20.05.2017 17:00 24,6 C 16,4 C 43 % 51 % 1021,4 hPa 0,0 l/m 7,0 km/h (2 Bft) W-NW 0,73 h 1,2 UV-I 176 W/m 6,2 C 15,4 C 12,8 km/h (3 Bft)
20.05.2017 18:00 23,8 C 15,8 C 43 % 54 % 1021,7 hPa 0,0 l/m 7,9 km/h (2 Bft) W-NW 0,00 h 0,8 UV-I 118 W/m 6,5 C 14,5 C 13,0 km/h (3 Bft)
20.05.2017 19:00 23,8 C 15,3 C 46 % 57 % 1022,1 hPa 0,0 l/m 2,4 km/h (1 Bft) NW 0,00 h 0,5 UV-I 54 W/m 6,9 C 15,1 C 6,0 km/h (2 Bft)
20.05.2017 20:00 23,8 C 14,3 C 46 % 63 % 1022,9 hPa 0,0 l/m 1,9 km/h (1 Bft) NW 0,00 h 0,0 UV-I 13 W/m 7,4 C 14,1 C 3,8 km/h (1 Bft)
20.05.2017 21:00 24,0 C 13,4 C 47 % 70 % 1023,6 hPa 0,0 l/m 0,0 km/h (0 Bft) N 0,00 h 0,0 UV-I 0 W/m 8,1 C 13,4 C 0,0 km/h (0 Bft)
20.05.2017 22:00 24,1 C 12,5 C 48 % 75 % 1024,3 hPa 0,0 l/m 0,0 km/h (0 Bft) N 0,00 h 0,0 UV-I 0 W/m 8,2 C 12,5 C 0,0 km/h (0 Bft)
20.05.2017 23:00 23,8 C 11,4 C 49 % 81 % 1024,7 hPa 0,0 l/m 0,0 km/h (0 Bft) N 0,00 h 0,0 UV-I 0 W/m 8,3 C 11,4 C 0,0 km/h (0 Bft)
21.05.2017 00:00 23,9 C 10,4 C 50 % 86 % 1024,9 hPa 0,0 l/m 0,0 km/h (0 Bft) N 0,00 h 0,0 UV-I 0 W/m 8,2 C 10,4 C 0,0 km/h (0 Bft)
21.05.2017 01:00 23,7 C 10,1 C 50 % 88 % 1024,9 hPa 0,0 l/m 0,0 km/h (0 Bft) N 0,00 h 0,0 UV-I 0 W/m 8,2 C 10,1 C 0,0 km/h (0 Bft)
21.05.2017 02:00 23,7 C 10,1 C 51 % 88 % 1025,0 hPa 0,0 l/m 0,0 km/h (0 Bft) N 0,00 h 0,0 UV-I 0 W/m 8,2 C 10,1 C 0,0 km/h (0 Bft)
21.05.2017 03:00 23,6 C 8,9 C 51 % 91 % 1025,1 hPa 0,0 l/m 0,0 km/h (0 Bft) N 0,00 h 0,0 UV-I 0 W/m 7,5 C 8,9 C 0,0 km/h (0 Bft)
21.05.2017 04:00 23,6 C 7,7 C 51 % 93 % 1025,2 hPa 0,0 l/m 0,0 km/h (0 Bft) N 0,00 h 0,0 UV-I 0 W/m 6,7 C 7,7 C 0,0 km/h (0 Bft)
21.05.2017 05:00 23,5 C 7,3 C 52 % 94 % 1025,4 hPa 0,0 l/m 0,0 km/h (0 Bft) N 0,00 h 0,0 UV-I 13 W/m 6,4 C 7,3 C 0,0 km/h (0 Bft)
21.05.2017 06:00 23,4 C 7,7 C 52 % 94 % 1025,7 hPa 0,0 l/m 0,0 km/h (0 Bft) N 0,00 h 0,0 UV-I 33 W/m 6,8 C 7,7 C 0,0 km/h (0 Bft)
21.05.2017 07:00 23,4 C 10,3 C 52 % 88 % 1026,0 hPa 0,0 l/m 0,0 km/h (0 Bft) N 0,50 h 0,8 UV-I 167 W/m 8,4 C 10,3 C 0,0 km/h (0 Bft)
21.05.2017 08:00 23,4 C 13,0 C 52 % 79 % 1026,3 hPa 0,0 l/m 0,2 km/h (0 Bft) N 0,90 h 1,7 UV-I 453 W/m 9,4 C 13,0 C 0,5 km/h (0 Bft)
21.05.2017 09:00 23,3 C 16,2 C 52 % 63 % 1026,1 hPa 0,0 l/m 3,4 km/h (1 Bft) N 1,00 h 2,8 UV-I 599 W/m 9,2 C 16,1 C 7,5 km/h (2 Bft)
21.05.2017 10:00 23,5 C 16,8 C 45 % 57 % 1026,1 hPa 0,0 l/m 3,9 km/h (1 Bft) N-NO 0,93 h 3,7 UV-I 531 W/m 8,3 C 16,6 C 8,0 km/h (2 Bft)
21.05.2017 11:00 23,7 C 18,4 C 44 % 52 % 1026,1 hPa 0,0 l/m 2,2 km/h (1 Bft) N-NO 1,00 h 4,9 UV-I 740 W/m 8,5 C 18,4 C 4,5 km/h (1 Bft)
21.05.2017 12:00 24,1 C 17,3 C 46 % 52 % 1025,8 hPa 0,0 l/m 3,0 km/h (1 Bft) NW 1,00 h 2,7 UV-I 286 W/m 7,5 C 17,2 C 5,4 km/h (1 Bft)
21.05.2017 13:00 24,3 C 17,4 C 46 % 54 % 1025,5 hPa 0,0 l/m 1,5 km/h (1 Bft) N-NO 1,00 h 2,8 UV-I 320 W/m 8,0 C 17,4 C 3,0 km/h (1 Bft)
21.05.2017 14:00 24,4 C 18,1 C 45 % 52 % 1025,1 hPa 0,0 l/m 0,7 km/h (0 Bft) N-NO 1,00 h 3,1 UV-I 353 W/m 8,1 C 18,1 C 2,3 km/h (1 Bft)
21.05.2017 15:00 24,4 C 17,6 C 44 % 51 % 1024,7 hPa 0,0 l/m 0,4 km/h (0 Bft) SO 1,00 h 2,3 UV-I 276 W/m 7,5 C 17,6 C 1,0 km/h (0 Bft)
21.05.2017 16:00 24,1 C 18,1 C 43 % 51 % 1024,2 hPa 0,0 l/m 0,7 km/h (0 Bft) O 1,00 h 2,0 UV-I 290 W/m 7,9 C 18,1 C 1,7 km/h (1 Bft)
21.05.2017 17:00 23,9 C 17,7 C 42 % 52 % 1023,9 hPa 0,0 l/m 0,4 km/h (0 Bft) N-NO 0,75 h 1,0 UV-I 152 W/m 7,8 C 17,7 C 1,5 km/h (1 Bft)
21.05.2017 18:00 24,2 C 17,4 C 44 % 54 % 1023,5 hPa 0,0 l/m 0,0 km/h (0 Bft) O-SO 0,00 h 0,6 UV-I 87 W/m 7,9 C 17,4 C 0,2 km/h (0 Bft)
21.05.2017 19:00 24,4 C 16,9 C 45 % 57 % 1023,4 hPa 0,0 l/m 0,0 km/h (0 Bft) NO 0,00 h 0,0 UV-I 43 W/m 8,5 C 16,9 C 0,2 km/h (0 Bft)
21.05.2017 20:00 24,6 C 16,1 C 47 % 60 % 1023,1 hPa 0,0 l/m 0,6 km/h (0 Bft) N-NO 0,00 h 0,0 UV-I 12 W/m 8,4 C 16,1 C 1,7 km/h (1 Bft)
21.05.2017 21:00 24,8 C 15,1 C 48 % 65 % 1023,1 hPa 0,0 l/m 1,5 km/h (1 Bft) N-NO 0,00 h 0,0 UV-I 0 W/m 8,5 C 15,1 C 3,3 km/h (1 Bft)
21.05.2017 22:00 24,9 C 13,7 C 48 % 68 % 1023,2 hPa 0,0 l/m 0,0 km/h (0 Bft) N-NO 0,00 h 0,0 UV-I 0 W/m 7,8 C 13,7 C 0,3 km/h (0 Bft)
21.05.2017 23:00 24,8 C 11,7 C 49 % 78 % 1023,0 hPa 0,0 l/m 0,0 km/h (0 Bft) N 0,00 h 0,0 UV-I 0 W/m 7,9 C 11,7 C 0,0 km/h (0 Bft)
Min-Datum _ 21.05.17 16.05.17 20.05.17 16.05.17 19.05.17 - 15.05.17 - - - - 16.05.17 20.05.17 15.05.17
_ Min-Zeit 09:28 06:15 15:30 17:13 17:06 - 00:00 - - - - 06:15 01:32 00:00
Minimum _ 23,3 C 4,9 C 39 % 31 % 1003,7 hPa - 0,0 km/h (0 Bft) - - - - 4,3 C 3,6 C 0,0 km/h (0 Bft)
Max-Datum _ 18.05.17 18.05.17 15.05.17 15.05.17 16.05.17 15.05.17 19.05.17 - 21.05.17 17.05.17 20.05.17 19.05.17 18.05.17 19.05.17
_ Max-Zeit 17:22 15:35 01:56 06:43 08:32 12:03 19:52 - 15:07 12:51 13:19 10:57 15:35 19:26
Maximum _ 26,1 C 28,0 C 56 % 98 % 1030,5 hPa 2,8 l/m 25,7 km/h
W-SW (4 Bft)
- 0,10 h 7,3 UV-I 1174 W/m 16,5 C 28,0 C 37,0 km/h
W-SW (5 Bft)
Durchschnitt _ 24,7 C 15,9 C 51 % 70 % 1020,3 hPa #11,2 l/m 1,9 km/h (1 Bft) W-SW #65:44 h 3,0 UV-I 358 W/m 9,8 C 15,8 C 4,1 km/h (1 Bft)